createdAt,value
2023-05-04T00:01:23.248Z,100979.81
2023-05-04T00:03:51.751Z,100963.72
2023-05-04T00:06:19.644Z,100959.59
2023-05-04T00:08:47.363Z,100961.19
2023-05-04T00:11:17.367Z,100959.59
2023-05-04T00:13:45.204Z,100957.91
2023-05-04T00:16:13.020Z,100952.63
2023-05-04T00:18:40.826Z,100948.41
2023-05-04T00:21:09.088Z,100953.72
2023-05-04T00:23:36.842Z,100941.50
2023-05-04T00:26:04.645Z,100949.25
2023-05-04T00:28:33.833Z,100954.81
2023-05-04T00:31:01.948Z,100951.56
2023-05-04T00:33:29.859Z,100942.91
2023-05-04T00:35:57.763Z,100949.25
2023-05-04T00:38:25.596Z,100940.69
2023-05-04T00:40:54.168Z,100943.41
2023-05-04T00:43:21.965Z,100936.41
2023-05-04T00:45:52.046Z,100941.59
2023-05-04T00:48:20.369Z,100938.34
2023-05-04T00:50:48.402Z,100933.66
2023-05-04T00:53:16.754Z,100939.13
2023-05-04T00:55:44.999Z,100928.28
2023-05-04T00:58:13.294Z,100934.03
2023-05-04T01:00:41.802Z,100938.41
2023-05-04T01:03:12.131Z,100929.94
2023-05-04T01:05:48.711Z,100929.31
2023-05-04T01:08:20.242Z,100927.88
2023-05-04T01:10:55.989Z,100929.72
2023-05-04T01:13:27.046Z,100921.69
2023-05-04T01:15:56.134Z,100929.75
2023-05-04T01:18:26.435Z,100931.34
2023-05-04T01:20:54.533Z,100926.53
2023-05-04T01:23:24.191Z,100927.84
2023-05-04T01:26:00.122Z,100925.63
2023-05-04T01:28:36.056Z,100927.66
2023-05-04T01:31:06.593Z,100923.03
2023-05-04T01:33:34.647Z,100930.34
2023-05-04T01:36:02.736Z,100928.63
2023-05-04T01:38:32.803Z,100933.41
2023-05-04T01:41:01.150Z,100935.19
2023-05-04T01:43:28.812Z,100935.47
2023-05-04T01:45:56.982Z,100932.84
2023-05-04T01:48:24.787Z,100938.91
2023-05-04T01:50:52.844Z,100926.88
2023-05-04T01:53:20.530Z,100927.88
2023-05-04T01:55:49.527Z,100928.88
2023-05-04T01:58:18.263Z,100929.13
2023-05-04T02:00:46.359Z,100926.72
2023-05-04T02:03:14.334Z,100925.50
2023-05-04T02:05:42.137Z,100926.88
2023-05-04T02:08:10.401Z,100923.47
2023-05-04T02:10:38.129Z,100928.94
2023-05-04T02:13:07.418Z,100931.06
2023-05-04T02:15:35.764Z,100936.13
2023-05-04T02:18:03.555Z,100925.88
2023-05-04T02:20:31.586Z,100926.72
2023-05-04T02:22:59.692Z,100913.72
2023-05-04T02:25:27.493Z,100922.53
2023-05-04T02:27:55.189Z,100918.22
2023-05-04T02:30:24.352Z,100922.84
2023-05-04T02:32:52.780Z,100920.25
2023-05-04T02:35:20.693Z,100919.28
2023-05-04T02:37:48.362Z,100916.03
2023-05-04T02:40:16.346Z,100917.41
2023-05-04T02:42:44.032Z,100912.91
2023-05-04T02:45:13.032Z,100914.66
2023-05-04T02:47:42.153Z,100916.19
2023-05-04T02:50:10.929Z,100905.38
2023-05-04T02:52:40.191Z,100912.41
2023-05-04T02:55:09.330Z,100902.66
2023-05-04T02:57:37.710Z,100902.06
2023-05-04T03:00:07.091Z,100907.09
2023-05-04T03:02:35.566Z,100901.16
2023-05-04T03:05:05.297Z,100906.97
2023-05-04T03:07:33.048Z,100904.53
2023-05-04T03:10:00.668Z,100899.19
2023-05-04T03:12:28.837Z,100906.66
2023-05-04T03:14:56.831Z,100901.63
2023-05-04T03:17:24.819Z,100899.63
2023-05-04T03:19:52.858Z,100892.13
2023-05-04T03:22:22.446Z,100896.16
2023-05-04T03:24:50.819Z,100896.53
2023-05-04T03:27:19.566Z,100891.97
2023-05-04T03:29:47.894Z,100890.53
2023-05-04T03:32:16.266Z,100893.16
2023-05-04T03:34:45.687Z,100892.44
2023-05-04T03:37:13.981Z,100890.91
2023-05-04T03:39:43.078Z,100891.78
2023-05-04T03:42:11.082Z,100887.53
2023-05-04T03:44:39.281Z,100889.44
2023-05-04T03:47:07.725Z,100896.91
2023-05-04T03:49:36.304Z,100893.28
2023-05-04T03:52:04.012Z,100883.34
2023-05-04T03:54:31.776Z,100888.94
2023-05-04T03:57:01.591Z,100888.47
2023-05-04T03:59:29.451Z,100891.66
2023-05-04T04:01:57.565Z,100891.00
2023-05-04T04:04:25.540Z,100887.41
2023-05-04T04:06:53.423Z,100897.09
2023-05-04T04:09:21.291Z,100894.47
2023-05-04T04:11:49.427Z,100897.94
2023-05-04T04:14:18.516Z,100896.91
2023-05-04T04:16:46.622Z,100901.63
2023-05-04T04:19:14.720Z,100901.72
2023-05-04T04:21:42.391Z,100901.59
2023-05-04T04:24:10.386Z,100905.06
2023-05-04T04:26:38.546Z,100892.38
2023-05-04T04:29:06.230Z,100901.44
2023-05-04T04:31:36.048Z,100903.53
2023-05-04T04:34:03.828Z,100900.91
2023-05-04T04:36:31.649Z,100905.06
2023-05-04T04:38:59.626Z,100906.88
2023-05-04T04:41:27.795Z,100913.47
2023-05-04T04:43:55.504Z,100911.25
2023-05-04T04:46:23.411Z,100912.31
2023-05-04T04:48:54.685Z,100920.06
2023-05-04T04:51:22.471Z,100912.38
2023-05-04T04:53:51.303Z,100912.81
2023-05-04T04:56:19.565Z,100906.16
2023-05-04T04:58:47.564Z,100909.81
2023-05-04T05:01:17.928Z,100921.22
2023-05-04T05:03:46.070Z,100914.66
2023-05-04T05:06:15.954Z,100929.47
2023-05-04T05:08:44.583Z,100915.09
2023-05-04T05:11:13.150Z,100919.53
2023-05-04T05:13:40.907Z,100913.06
2023-05-04T05:16:08.681Z,100912.81
2023-05-04T05:18:36.395Z,100912.97
2023-05-04T05:21:04.177Z,100921.81
2023-05-04T05:23:33.220Z,100915.50
2023-05-04T05:26:03.104Z,100914.56
2023-05-04T05:28:31.760Z,100920.41
2023-05-04T05:30:59.470Z,100924.28
2023-05-04T05:33:27.783Z,100925.88
2023-05-04T05:35:55.594Z,100924.03
2023-05-04T05:38:23.656Z,100923.28
2023-05-04T05:40:53.505Z,100932.44
2023-05-04T05:43:21.322Z,100925.03
2023-05-04T05:45:50.002Z,100925.66
2023-05-04T05:48:18.159Z,100923.03
2023-05-04T05:50:46.693Z,100923.50
2023-05-04T05:53:14.482Z,100918.69
2023-05-04T05:55:42.415Z,100917.59
2023-05-04T05:58:11.612Z,100920.22
2023-05-04T06:00:39.343Z,100921.81
2023-05-04T06:03:07.701Z,100919.31
2023-05-04T06:05:35.772Z,100908.03
2023-05-04T06:08:03.420Z,100912.94
2023-05-04T06:10:31.206Z,100908.94
2023-05-04T06:12:59.294Z,100911.47
2023-05-04T06:15:28.612Z,100904.28
2023-05-04T06:17:56.481Z,100899.97
2023-05-04T06:20:24.354Z,100892.56
2023-05-04T06:22:52.139Z,100891.50
2023-05-04T06:25:20.329Z,100893.91
2023-05-04T06:27:47.982Z,100892.00
2023-05-04T06:30:17.162Z,100891.06
2023-05-04T06:32:46.926Z,100891.13
2023-05-04T06:35:15.373Z,100895.00
2023-05-04T06:37:43.088Z,100891.28
2023-05-04T06:40:11.642Z,100895.25
2023-05-04T06:42:42.556Z,100900.41
2023-05-04T06:45:16.260Z,100902.00
2023-05-04T06:47:45.600Z,100900.09
2023-05-04T06:50:19.992Z,100899.78
2023-05-04T06:52:47.866Z,100901.50
2023-05-04T06:55:15.776Z,100905.75
2023-05-04T06:57:43.843Z,100898.81
2023-05-04T07:00:12.734Z,100896.50
2023-05-04T07:02:40.472Z,100906.78
2023-05-04T07:05:08.930Z,100901.69
2023-05-04T07:07:40.276Z,100901.56
2023-05-04T07:10:09.452Z,100892.75
2023-05-04T07:12:37.523Z,100888.25
2023-05-04T07:15:06.855Z,100890.63
2023-05-04T07:17:34.997Z,100885.09
2023-05-04T07:20:03.824Z,100882.97
2023-05-04T07:22:31.640Z,100882.94
2023-05-04T07:25:01.190Z,100883.16
2023-05-04T07:27:28.921Z,100881.09
2023-05-04T07:29:57.462Z,100886.13
2023-05-04T07:32:25.917Z,100875.19
2023-05-04T07:34:53.880Z,100872.47
2023-05-04T07:37:21.811Z,100867.19
2023-05-04T07:39:49.632Z,100866.03
2023-05-04T07:42:19.215Z,100864.75
2023-05-04T07:44:47.024Z,100864.34
2023-05-04T07:47:14.724Z,100856.38
2023-05-04T07:49:42.486Z,100853.47
2023-05-04T07:52:10.190Z,100848.28
2023-05-04T07:54:37.820Z,100846.63
2023-05-04T07:57:05.926Z,100837.31
2023-05-04T07:59:35.001Z,100843.97
2023-05-04T08:02:04.431Z,100842.84
2023-05-04T08:04:32.221Z,100840.09
2023-05-04T08:07:00.306Z,100842.13
2023-05-04T08:09:28.591Z,100836.88
2023-05-04T08:11:56.417Z,100834.75
2023-05-04T08:14:24.113Z,100832.97
2023-05-04T08:16:53.079Z,100826.63
2023-05-04T08:19:21.108Z,100821.41
2023-05-04T08:21:49.058Z,100819.00
2023-05-04T08:24:18.515Z,100807.13
2023-05-04T08:26:55.596Z,100802.84
2023-05-04T08:29:23.780Z,100805.06
2023-05-04T08:31:55.254Z,100807.25
2023-05-04T08:34:23.067Z,100800.94
2023-05-04T08:36:51.214Z,100791.56
2023-05-04T08:39:19.411Z,100794.94
2023-05-04T08:41:47.577Z,100791.16
2023-05-04T08:44:16.282Z,100788.53
2023-05-04T08:46:45.046Z,100784.06
2023-05-04T08:49:14.294Z,100787.13
2023-05-04T08:51:43.708Z,100783.13
2023-05-04T08:54:11.780Z,100782.72
2023-05-04T08:56:41.023Z,100774.44
2023-05-04T08:59:11.038Z,100776.28
2023-05-04T09:01:39.546Z,100769.56
2023-05-04T09:04:09.832Z,100767.66
2023-05-04T09:06:38.974Z,100769.06
2023-05-04T09:09:07.029Z,100752.91
2023-05-04T09:11:35.453Z,100757.41
2023-05-04T09:14:03.242Z,100767.38
2023-05-04T09:16:37.708Z,100749.88
2023-05-04T09:19:17.371Z,100743.56
2023-05-04T09:21:47.078Z,100737.31
2023-05-04T09:24:14.824Z,100737.69
2023-05-04T09:26:42.707Z,100728.38
2023-05-04T09:29:15.050Z,100741.44
2023-05-04T09:31:44.553Z,100733.91
2023-05-04T09:34:13.956Z,100721.34
2023-05-04T09:36:42.872Z,100721.06
2023-05-04T09:39:13.497Z,100728.13
2023-05-04T09:41:42.116Z,100727.13
2023-05-04T09:44:19.279Z,100717.78
2023-05-04T09:46:54.801Z,100707.78
2023-05-04T09:49:31.960Z,100712.63
2023-05-04T09:52:02.511Z,100716.31
2023-05-04T09:54:35.383Z,100693.47
2023-05-04T09:57:10.548Z,100691.47
2023-05-04T09:59:39.199Z,100682.75
2023-05-04T10:02:18.872Z,100669.66
2023-05-04T10:04:51.750Z,100654.38
2023-05-04T10:07:20.685Z,100671.03
2023-05-04T10:09:51.504Z,100670.13
2023-05-04T10:12:19.459Z,100664.09
2023-05-04T10:14:47.531Z,100653.22
2023-05-04T10:17:26.592Z,100649.06
2023-05-04T10:20:07.448Z,100644.22
2023-05-04T10:22:58.710Z,100640.94
2023-05-04T10:25:46.253Z,100631.31
2023-05-04T10:28:25.141Z,100634.97
2023-05-04T10:30:58.184Z,100631.09
2023-05-04T10:33:26.222Z,100618.75
2023-05-04T10:35:54.144Z,100601.38
2023-05-04T10:38:33.050Z,100596.69
2023-05-04T10:41:02.352Z,100595.47
2023-05-04T10:43:30.172Z,100591.78
2023-05-04T10:45:58.656Z,100590.38
2023-05-04T10:48:34.840Z,100574.91
2023-05-04T10:51:02.518Z,100571.34
2023-05-04T10:53:34.320Z,100574.84
2023-05-04T10:56:03.473Z,100567.00
2023-05-04T10:58:31.389Z,100558.22
2023-05-04T11:00:59.108Z,100551.22
2023-05-04T11:03:28.039Z,100547.00
2023-05-04T11:05:56.012Z,100532.41
2023-05-04T11:08:25.299Z,100530.31
2023-05-04T11:11:03.821Z,100523.38
2023-05-04T11:13:34.432Z,100534.66
2023-05-04T11:16:02.693Z,100524.25
2023-05-04T11:18:32.334Z,100519.75
2023-05-04T11:21:00.067Z,100505.09
2023-05-04T11:23:28.196Z,100512.00
2023-05-04T11:25:56.393Z,100513.19
2023-05-04T11:28:34.984Z,100521.97
2023-05-04T11:31:04.018Z,100513.56
2023-05-04T11:33:31.926Z,100506.66
2023-05-04T11:36:02.234Z,100506.91
2023-05-04T11:38:30.641Z,100498.19
2023-05-04T11:40:58.447Z,100497.13
2023-05-04T11:43:26.335Z,100500.50
2023-05-04T11:45:59.529Z,100491.41
2023-05-04T11:48:27.996Z,100492.13
2023-05-04T11:50:56.588Z,100482.16
2023-05-04T11:53:24.365Z,100476.19
2023-05-04T11:55:55.419Z,100479.00
2023-05-04T11:58:26.853Z,100460.75
2023-05-04T12:00:59.845Z,100474.72
2023-05-04T12:03:39.843Z,100463.44
2023-05-04T12:06:16.432Z,100464.25
2023-05-04T12:08:44.174Z,100468.44
2023-05-04T12:11:14.701Z,100465.94
2023-05-04T12:13:44.261Z,100466.31
2023-05-04T12:16:15.456Z,100472.25
2023-05-04T12:18:45.281Z,100465.50
2023-05-04T12:21:15.666Z,100455.47
2023-05-04T12:23:43.608Z,100443.06
2023-05-04T12:26:12.524Z,100440.78
2023-05-04T12:28:42.731Z,100451.72
2023-05-04T12:31:11.082Z,100438.97
2023-05-04T12:33:40.268Z,100435.69
2023-05-04T12:36:08.827Z,100437.47
2023-05-04T12:38:37.496Z,100449.44
2023-05-04T12:41:07.471Z,100451.19
2023-05-04T12:43:35.673Z,100435.38
2023-05-04T12:46:03.570Z,100448.00
2023-05-04T12:48:32.899Z,100441.09
2023-05-04T12:51:04.022Z,100426.09
2023-05-04T12:53:32.272Z,100432.03
2023-05-04T12:56:01.155Z,100429.97
2023-05-04T12:58:29.419Z,100427.38
2023-05-04T13:00:57.827Z,100429.91
2023-05-04T13:03:25.859Z,100431.41
2023-05-04T13:05:54.220Z,100416.47
2023-05-04T13:08:23.666Z,100433.38
2023-05-04T13:10:52.186Z,100403.69
2023-05-04T13:13:23.006Z,100401.41
2023-05-04T13:15:52.123Z,100405.75
2023-05-04T13:18:19.815Z,100402.47
2023-05-04T13:20:47.702Z,100374.66
2023-05-04T13:23:15.778Z,100376.78
2023-05-04T13:25:44.853Z,100372.22
2023-05-04T13:28:12.864Z,100379.44
2023-05-04T13:30:40.599Z,100384.25
2023-05-04T13:33:20.700Z,100373.00
2023-05-04T13:35:56.878Z,100363.88
2023-05-04T13:38:24.703Z,100366.50
2023-05-04T13:40:54.084Z,100373.03
2023-05-04T13:43:22.227Z,100370.97
2023-05-04T13:45:50.717Z,100364.88
2023-05-04T13:48:18.567Z,100375.50
2023-05-04T13:50:46.339Z,100358.19
2023-05-04T13:53:14.024Z,100357.28
2023-05-04T13:55:42.112Z,100351.56
2023-05-04T13:58:11.482Z,100338.56
2023-05-04T14:00:39.244Z,100335.00
2023-05-04T14:03:06.946Z,100340.94
2023-05-04T14:05:35.603Z,100313.56
2023-05-04T14:08:03.744Z,100315.22
2023-05-04T14:10:31.944Z,100313.00
2023-05-04T14:12:59.826Z,100330.31
2023-05-04T14:15:29.100Z,100330.56
2023-05-04T14:17:57.114Z,100311.75
2023-05-04T14:20:25.046Z,100297.94
2023-05-04T14:22:52.814Z,100291.22
2023-05-04T14:25:22.112Z,100289.19
2023-05-04T14:27:50.195Z,100305.94
2023-05-04T14:30:19.070Z,100287.41
2023-05-04T14:32:48.100Z,100295.97
2023-05-04T14:35:17.243Z,100293.69
2023-05-04T14:37:45.108Z,100292.56
2023-05-04T14:40:13.501Z,100295.06
2023-05-04T14:42:41.327Z,100296.66
2023-05-04T14:45:10.794Z,100297.41
2023-05-04T14:47:38.704Z,100308.13
2023-05-04T14:50:09.467Z,100312.84
2023-05-04T14:52:37.746Z,100311.16
2023-05-04T14:55:06.785Z,100304.72
2023-05-04T14:57:34.581Z,100300.31
2023-05-04T15:00:08.008Z,100295.13
2023-05-04T15:02:39.458Z,100301.72
2023-05-04T15:05:12.807Z,100301.19
2023-05-04T15:07:41.125Z,100287.84
2023-05-04T15:10:10.479Z,100273.94
2023-05-04T15:12:40.144Z,100272.66
2023-05-04T15:15:08.892Z,100280.47
2023-05-04T15:17:37.255Z,100274.72
2023-05-04T15:20:05.886Z,100275.81
2023-05-04T15:22:35.287Z,100269.09
2023-05-04T15:25:03.725Z,100274.22
2023-05-04T15:27:31.539Z,100269.66
2023-05-04T15:29:59.781Z,100258.81
2023-05-04T15:32:27.723Z,100252.44
2023-05-04T15:35:04.742Z,100264.53
2023-05-04T15:37:34.802Z,100257.53
2023-05-04T15:40:04.560Z,100263.91
2023-05-04T15:42:33.537Z,100256.50
2023-05-04T15:45:02.333Z,100255.19
2023-05-04T15:47:30.425Z,100248.66
2023-05-04T15:49:58.569Z,100247.53
2023-05-04T15:52:27.073Z,100231.44
2023-05-04T15:54:56.921Z,100216.84
2023-05-04T15:57:25.363Z,100221.88
2023-05-04T15:59:53.563Z,100224.38
2023-05-04T16:02:21.441Z,100227.97
2023-05-04T16:04:49.539Z,100217.38
2023-05-04T16:07:17.199Z,100234.31
2023-05-04T16:09:46.071Z,100245.69
2023-05-04T16:12:15.544Z,100230.09
2023-05-04T16:14:43.792Z,100236.59
2023-05-04T16:17:11.695Z,100230.75
2023-05-04T16:19:39.489Z,100227.88
2023-05-04T16:22:07.244Z,100233.75
2023-05-04T16:24:36.055Z,100223.53
2023-05-04T16:27:04.510Z,100223.16
2023-05-04T16:29:33.603Z,100229.22
2023-05-04T16:32:01.245Z,100238.34
2023-05-04T16:34:28.952Z,100222.28
2023-05-04T16:36:56.654Z,100229.97
2023-05-04T16:39:30.061Z,100214.63
2023-05-04T16:41:58.582Z,100221.34
2023-05-04T16:44:26.520Z,100230.53
2023-05-04T16:46:55.636Z,100214.78
2023-05-04T16:49:23.261Z,100212.41
2023-05-04T16:51:50.978Z,100214.78
2023-05-04T16:54:20.873Z,100218.81
2023-05-04T16:56:48.723Z,100209.06
2023-05-04T16:59:16.792Z,100204.44
2023-05-04T17:01:45.708Z,100193.47
2023-05-04T17:04:14.824Z,100202.78
2023-05-04T17:06:42.568Z,100212.97
2023-05-04T17:09:10.734Z,100205.72
2023-05-04T17:11:38.519Z,100220.22
2023-05-04T17:14:06.584Z,100219.38
2023-05-04T17:16:34.442Z,100221.16
2023-05-04T17:19:03.019Z,100225.56
2023-05-04T17:21:32.864Z,100225.66
2023-05-04T17:24:00.540Z,100212.91
2023-05-04T17:26:28.355Z,100210.69
2023-05-04T17:28:56.195Z,100208.75
2023-05-04T17:31:24.079Z,100200.13
2023-05-04T17:33:52.099Z,100216.88
2023-05-04T17:36:19.932Z,100223.09
2023-05-04T17:38:49.168Z,100229.66
2023-05-04T17:41:17.050Z,100227.28
2023-05-04T17:43:45.659Z,100221.09
2023-05-04T17:46:13.648Z,100223.19
2023-05-04T17:48:41.419Z,100220.63
2023-05-04T17:51:09.589Z,100243.53
2023-05-04T17:53:37.879Z,100245.75
2023-05-04T17:56:07.420Z,100254.28
2023-05-04T17:58:35.470Z,100244.91
2023-05-04T18:01:03.205Z,100243.28
2023-05-04T18:03:30.947Z,100239.66
2023-05-04T18:05:58.987Z,100250.38
2023-05-04T18:08:26.715Z,100246.53
2023-05-04T18:10:54.819Z,100261.28
2023-05-04T18:13:23.929Z,100267.97
2023-05-04T18:15:52.329Z,100274.84
2023-05-04T18:18:20.070Z,100275.41
2023-05-04T18:20:47.784Z,100288.06
2023-05-04T18:23:16.173Z,100287.53
2023-05-04T18:25:44.117Z,100283.25
2023-05-04T18:28:11.866Z,100292.72
2023-05-04T18:30:41.042Z,100288.53
2023-05-04T18:33:09.684Z,100293.22
2023-05-04T18:35:37.856Z,100296.22
2023-05-04T18:38:06.043Z,100300.16
2023-05-04T18:40:34.300Z,100298.13
2023-05-04T18:43:02.672Z,100295.47
2023-05-04T18:45:30.595Z,100304.91
2023-05-04T18:47:59.842Z,100306.59
2023-05-04T18:50:27.987Z,100302.63
2023-05-04T18:52:56.051Z,100303.63
2023-05-04T18:55:24.282Z,100312.97
2023-05-04T18:57:52.514Z,100311.63
2023-05-04T19:00:21.461Z,100318.22
2023-05-04T19:02:49.445Z,100323.34
2023-05-04T19:05:18.837Z,100324.13
2023-05-04T19:07:46.466Z,100325.78
2023-05-04T19:10:15.122Z,100334.78
2023-05-04T19:12:42.911Z,100325.78
2023-05-04T19:15:10.842Z,100334.34
2023-05-04T19:17:38.865Z,100339.25
2023-05-04T19:20:08.237Z,100338.16
2023-05-04T19:22:37.429Z,100335.59
2023-05-04T19:25:06.415Z,100336.88
2023-05-04T19:27:36.088Z,100328.97
2023-05-04T19:30:05.231Z,100334.81
2023-05-04T19:32:33.493Z,100331.81
2023-05-04T19:35:01.581Z,100338.72
2023-05-04T19:37:29.902Z,100346.84
2023-05-04T19:39:59.082Z,100341.41
2023-05-04T19:42:28.292Z,100342.59
2023-05-04T19:44:55.934Z,100350.91
2023-05-04T19:47:24.255Z,100354.41
2023-05-04T19:49:52.484Z,100345.22
2023-05-04T19:52:20.557Z,100348.47
2023-05-04T19:54:53.451Z,100349.31
2023-05-04T19:57:22.607Z,100347.84
2023-05-04T19:59:50.656Z,100349.25
2023-05-04T20:02:18.678Z,100351.03
2023-05-04T20:04:46.728Z,100350.19
2023-05-04T20:07:14.732Z,100352.19
2023-05-04T20:09:42.455Z,100353.66
2023-05-04T20:12:10.809Z,100350.59
2023-05-04T20:14:41.024Z,100360.38
2023-05-04T20:17:09.346Z,100356.63
2023-05-04T20:19:37.644Z,100353.47
2023-05-04T20:22:05.812Z,100355.34
2023-05-04T20:24:33.821Z,100356.75
2023-05-04T20:27:01.599Z,100346.22
2023-05-04T20:29:29.552Z,100353.50
2023-05-04T20:32:01.299Z,100349.50
2023-05-04T20:34:29.213Z,100353.50
2023-05-04T20:36:57.692Z,100353.50
2023-05-04T20:39:25.926Z,100357.06
2023-05-04T20:41:53.925Z,100347.84
2023-05-04T20:44:22.170Z,100346.78
2023-05-04T20:46:49.967Z,100352.03
2023-05-04T20:49:19.197Z,100357.41
2023-05-04T20:51:47.269Z,100349.94
2023-05-04T20:54:15.429Z,100350.03
2023-05-04T20:56:43.241Z,100349.09
2023-05-04T20:59:10.957Z,100358.34
2023-05-04T21:01:38.727Z,100347.72
2023-05-04T21:04:06.751Z,100347.31
2023-05-04T21:06:36.027Z,100347.00
2023-05-04T21:09:04.584Z,100346.06
2023-05-04T21:11:32.314Z,100342.59
2023-05-04T21:14:00.681Z,100342.81
2023-05-04T21:16:29.210Z,100340.47
2023-05-04T21:18:57.026Z,100340.38
2023-05-04T21:21:24.752Z,100338.06
2023-05-04T21:23:54.104Z,100340.78
2023-05-04T21:26:21.971Z,100346.28
2023-05-04T21:28:51.330Z,100354.88
2023-05-04T21:31:19.222Z,100350.38
2023-05-04T21:33:47.273Z,100347.47
2023-05-04T21:36:15.965Z,100348.91
2023-05-04T21:38:43.709Z,100346.97
2023-05-04T21:41:14.491Z,100348.31
2023-05-04T21:43:42.809Z,100343.38
2023-05-04T21:46:12.008Z,100347.97
2023-05-04T21:48:40.747Z,100348.19
2023-05-04T21:51:08.517Z,100348.47
2023-05-04T21:53:36.429Z,100353.34
2023-05-04T21:56:08.232Z,100343.03
2023-05-04T21:58:39.682Z,100338.91
2023-05-04T22:01:08.026Z,100334.97
2023-05-04T22:03:36.679Z,100330.13
2023-05-04T22:06:05.213Z,100334.31
2023-05-04T22:08:33.051Z,100348.34
2023-05-04T22:11:01.084Z,100342.19
2023-05-04T22:13:28.848Z,100336.09
2023-05-04T22:15:57.876Z,100342.75
2023-05-04T22:18:25.664Z,100339.09
2023-05-04T22:20:53.661Z,100336.13
2023-05-04T22:23:21.313Z,100330.47
2023-05-04T22:25:49.146Z,100333.84
2023-05-04T22:28:16.962Z,100337.88
2023-05-04T22:30:44.932Z,100335.72
2023-05-04T22:33:14.163Z,100339.19
2023-05-04T22:35:42.094Z,100333.84
2023-05-04T22:38:09.880Z,100332.16
2023-05-04T22:40:40.406Z,100330.47
2023-05-04T22:43:08.294Z,100343.13
2023-05-04T22:45:36.611Z,100339.88
2023-05-04T22:48:04.395Z,100351.38
2023-05-04T22:50:33.535Z,100344.44
2023-05-04T22:53:01.609Z,100345.63
2023-05-04T22:55:29.595Z,100347.41
2023-05-04T22:57:58.275Z,100347.50
2023-05-04T23:00:26.158Z,100348.91
2023-05-04T23:02:53.967Z,100352.56
2023-05-04T23:05:22.053Z,100352.94
2023-05-04T23:07:52.592Z,100355.41
2023-05-04T23:10:21.525Z,100349.69
2023-05-04T23:12:49.235Z,100356.22
2023-05-04T23:15:18.258Z,100365.78
2023-05-04T23:17:46.010Z,100357.47
2023-05-04T23:20:14.333Z,100360.16
2023-05-04T23:22:42.104Z,100362.34
2023-05-04T23:25:11.374Z,100366.34
2023-05-04T23:27:39.481Z,100365.00
2023-05-04T23:30:08.742Z,100366.81
2023-05-04T23:32:36.995Z,100367.38
2023-05-04T23:35:05.244Z,100357.19
2023-05-04T23:37:33.210Z,100364.75
2023-05-04T23:40:01.042Z,100359.59
2023-05-04T23:42:30.287Z,100361.28
2023-05-04T23:44:58.396Z,100363.91
2023-05-04T23:47:26.326Z,100368.69
2023-05-04T23:49:54.028Z,100374.41
2023-05-04T23:52:22.635Z,100363.94
2023-05-04T23:54:53.725Z,100365.13
2023-05-04T23:57:22.670Z,100365.44
2023-05-04T23:59:53.461Z,100369.44
